Terminal Aerodrome Forecast
Issued by NWS Cleveland, OH

Home | Current Version | Previous Version | Text Only | Print | Product List | Glossary On
Versions: 1 2 3 4 5 6 7 8 9 10 11 12 13 14 15 16 17 18 19
000
FTUS41 KCLE 020200 AAB
TAFYNG
TAF AMD
KYNG 020235Z 0203/0224 VRB03KT P6SM VCTS SCT040CB BKN060
      TEMPO 0203/0205 2SM TSRA
     FM020500 00000KT 5SM BR SCT035 BKN060
     FM021000 00000KT 3SM BR BKN030
     FM021600 10004KT P6SM VCTS BKN040CB=

USA.gov is the U.S. government's official web portal to all federal, state and local government web resources and services.